Airfield :
LOGIN :

Register | Disclaimer

   EN    FR    IT 

 










Legend :    VFR   Marginal VFR   IFR   Intensive IFR   Very Intensive IFR
Visi :
Ceiling :
>= 8 km
>= 3000ft
5 to 8 km
1000 to 3000 ft
1500m to 5 km
500 to 1000 ft
800 to 1500m
200 to 500 ft
< 800m
< 200 ft
Symbols :   Thunderstorms  Fog  Heavy snow  Heavy precipitations  Wind > 20 kt
SIGMETs :     Misc.  Thunderstorms  Icing  Turbulence  Mountain Waves  Volcanic Ashes






- Airport Elevation : 17 ft
- IATA code : GRQ


EHGG - Groningen Eelde

CURRENT METAR :
  • 031025Z AUTO 16006KT 060V220 9999 NSC 22/14 Q1004 NOSIG

EXPIRED METARs :
  • 030955Z AUTO 19006KT 120V270 9999 NSC 21/14 Q1004 NOSIG
  • 030925Z AUTO 20005KT 140V260 9999 NSC 21/15 Q1004 NOSIG
  • 030855Z AUTO 21006KT 150V260 9999 NSC 21/15 Q1004 NOSIG
  • 030825Z AUTO 17005KT 120V220 9999 NSC 20/15 Q1004 NOSIG
  • 030755Z AUTO 17003KT 110V230 9999 NSC 18/15 Q1005 TEMPO 7000 BKN007

TAF TAF EHGG
Valid from the 03 at 06:00 until the 04 at 12:00 UTC


030452Z 0306/0412 21007KT CAVOK
PROB30
TEMPO 0315/0320 6000 SHRA TSRA FEW060CB
BECMG 0317/0320 31010KT
BECMG 0323/0402 7000 BKN008
BECMG 0407/0410 9999 BKN018



MET'MAP, your aeronautical weather chart ! - Copyright ORBIFLY December 2007 - Disclaimer

ORBIFLY MET'MAP TEAM :

Programming & Development : Alexandra Zaïnal
Concept & original design : Baudouin d'Aumeries
Assistance for programming : Marc-Olivier Méhu
Technical & hardware support : Manuel Goepfert

Contact : metmap@orbifly.com




SOURCES & CREDITS :

   NOAA